Thursday, November 23, 2017, 1:27 PM EST
Back to Local

KTEB, Teterboro Airport

Location: South Hackensack, NJ, United States Lat: 40.867
Local Time: 1:27 PM EST (18:27 GMT) Lon: -74.05
Time Zone: US/Eastern Elev: 9 ft

Show me the last for .
Show Coded

Time T Td Feel RH Dir Speed Gust Alt SLP Vis Weather Sky Remarks
2017-11-23 12:51 43 19 39 37 320° 6 - 30.05 30.04 10 CLR 6-hr Min Temp (1pm): 30.0°F
6-hr Max Temp (1pm): 43.0°F
2017-11-23 11:51 40 19 - 42 - Calm - 30.06 30.06 10 CLR None
2017-11-23 10:51 38 19 33 46 290° 7 - 30.09 30.09 10 CLR None
2017-11-23 09:51 36 19 30 49 340° 8 - 30.12 30.11 10 CLR None
2017-11-23 08:51 35 19 30 51 320° 6 - 30.12 30.12 10 CLR None
2017-11-23 07:51 33 20 29 58 320° 5 - 30.12 30.11 10 CLR None
2017-11-23 06:51 31 18 27 58 250° 3 - 30.11 30.11 10 CLR Pressure rising rapidly
24-hr Precip Total (7am): 0.05"
6-hr Min Temp (7am): 30.0°F
6-hr Max Temp (7am): 34.0°F
2017-11-23 05:51 30 19 22 63 320° 8 - 30.09 30.09 10 CLR None
2017-11-23 04:51 32 19 26 58 330° 6 - 30.08 30.08 10 CLR None
2017-11-23 03:51 32 19 25 58 330° 8 - 30.08 30.08 10 CLR None
2017-11-23 02:51 32 19 24 58 320° 9 - 30.10 30.10 10 CLR None
2017-11-23 01:51 33 19 28 55 Variable 6 - 30.09 30.09 10 CLR None
2017-11-23 00:51 34 18 26 51 340° 10 - 30.08 30.08 10 CLR 6-hr Min Temp (1am): 34.0°F
6-hr Max Temp (1am): 41.0°F
2017-11-22 23:51 35 19 26 51 310° 14 - 30.09 30.09 10 CLR 24-hr Min Temp (12am): 35.1°F
24-hr Max Temp (12am): 54.0°F
2017-11-22 22:51 36 20 24 51 310° 17 24 30.08 30.08 10 CLR None
2017-11-22 21:51 37 21 26 51 320° 13 24 30.07 30.07 10 CLR None
2017-11-22 20:51 38 22 26 52 310° 18 30 30.06 30.06 10 CLR Peak wind: 29 mph (26 kts) from 310° at 50 min
2017-11-22 19:51 39 23 28 52 310° 15 25 30.04 30.04 10 BKN043 None
2017-11-22 18:51 41 25 30 52 330° 18 26 30.02 30.02 10 OVC041 6-hr Min Temp (7pm): 41.0°F
6-hr Max Temp (7pm): 54.0°F
2017-11-22 17:51 42 26 32 52 320° 18 28 30.00 30.00 10 BKN045 Peak wind: 29 mph (26 kts) from 320° at 53 min
2017-11-22 16:51 44 28 34 53 330° 18 30 29.98 29.98 10 BKN044 Peak wind: 29 mph (26 kts) from 310° at 23 min
2017-11-22 15:51 46 30 37 53 330° 15 29 29.95 29.95 10 CLR Peak wind: 29 mph (26 kts) from 320° at 01 min
2017-11-22 14:51 50 33 42 52 320° 17 29 29.91 29.91 10 CLR Peak wind: 29 mph (26 kts) from 320° at 57 min
2017-11-22 13:51 52 38 - 58 310° 17 22 29.89 29.89 10 CLR None

Support USWX by starting your Amazon purchase here.